createdAt,value
2018-06-18T00:01:01.174Z,99797.28
2018-06-18T00:04:02.736Z,99758.77
2018-06-18T00:07:06.461Z,99761.38
2018-06-18T00:10:05.901Z,99755.80
2018-06-18T00:12:39.053Z,99756.31
2018-06-18T00:15:11.259Z,99763.51
2018-06-18T00:17:43.491Z,99757.41
2018-06-18T00:20:17.567Z,99763.27
2018-06-18T00:22:49.658Z,99767.73
2018-06-18T00:25:22.422Z,99768.78
2018-06-18T00:27:54.242Z,99771.19
2018-06-18T00:30:27.905Z,99779.16
2018-06-18T00:32:59.819Z,99773.36
2018-06-18T00:35:31.190Z,99771.27
2018-06-18T00:38:03.217Z,99767.80
2018-06-18T00:40:35.451Z,99764.59
2018-06-18T00:43:07.491Z,99769.06
2018-06-18T00:45:39.431Z,99766.13
2018-06-18T00:48:12.060Z,99771.11
2018-06-18T00:50:44.087Z,99779.80
2018-06-18T00:53:16.584Z,99771.03
2018-06-18T00:55:58.199Z,99770.45
2018-06-18T00:58:31.406Z,99773.31
2018-06-18T01:01:05.792Z,99769.57
2018-06-18T01:03:38.516Z,99766.33
2018-06-18T01:06:10.395Z,99771.91
2018-06-18T01:08:43.179Z,99769.30
2018-06-18T01:11:17.063Z,99766.85
2018-06-18T01:13:49.387Z,99767.89
2018-06-18T01:16:22.226Z,99773.95
2018-06-18T01:18:54.105Z,99777.92
2018-06-18T01:21:26.523Z,99778.73
2018-06-18T01:24:03.953Z,99786.41
2018-06-18T01:26:35.917Z,99787.69
2018-06-18T01:29:08.244Z,99789.52
2018-06-18T01:31:40.583Z,99796.39
2018-06-18T01:34:18.394Z,99793.17
2018-06-18T01:36:50.974Z,99806.14
2018-06-18T01:39:25.774Z,99804.47
2018-06-18T01:41:58.492Z,99800.69
2018-06-18T01:44:30.685Z,99804.09
2018-06-18T01:47:02.623Z,99800.05
2018-06-18T01:49:35.551Z,99598.95
2018-06-18T01:52:08.165Z,99792.80
2018-06-18T01:54:39.666Z,99788.59
2018-06-18T01:57:11.906Z,99786.19
2018-06-18T01:59:43.655Z,99794.41
2018-06-18T02:02:15.568Z,99797.23
2018-06-18T02:04:47.105Z,99799.54
2018-06-18T02:07:18.733Z,99804.25
2018-06-18T02:09:50.316Z,99794.59
2018-06-18T02:12:22.949Z,99799.48
2018-06-18T02:14:54.837Z,99803.39
2018-06-18T02:17:26.661Z,99798.45
2018-06-18T02:19:58.453Z,99799.66
2018-06-18T02:22:30.487Z,99800.91
2018-06-18T02:25:02.539Z,99800.59
2018-06-18T02:27:39.840Z,99796.29
2018-06-18T02:30:16.515Z,99799.38
2018-06-18T02:32:53.822Z,99801.48
2018-06-18T02:35:30.368Z,99807.97
2018-06-18T02:38:07.266Z,99815.31
2018-06-18T02:40:43.375Z,99830.98
2018-06-18T02:43:15.843Z,99819.72
2018-06-18T02:45:48.228Z,99825.66
2018-06-18T02:48:20.676Z,99824.13
2018-06-18T02:50:53.895Z,99828.70
2018-06-18T02:53:25.783Z,99833.31
2018-06-18T02:55:58.161Z,99839.64
2018-06-18T02:58:30.646Z,99840.78
2018-06-18T03:01:03.889Z,99836.81
2018-06-18T03:03:35.517Z,99837.67
2018-06-18T03:06:08.143Z,99832.16
2018-06-18T03:08:39.891Z,99838.03
2018-06-18T03:11:11.659Z,99842.23
2018-06-18T03:13:43.715Z,99839.12
2018-06-18T03:16:15.780Z,99833.02
2018-06-18T03:18:52.349Z,99831.77
2018-06-18T03:21:28.874Z,99835.86
2018-06-18T03:24:06.367Z,99844.32
2018-06-18T03:26:43.020Z,99839.61
2018-06-18T03:29:17.026Z,99841.29
2018-06-18T03:31:48.810Z,99843.77
2018-06-18T03:34:21.050Z,99843.78
2018-06-18T03:36:53.739Z,99847.00
2018-06-18T03:39:25.267Z,99852.08
2018-06-18T03:41:57.254Z,99850.69
2018-06-18T03:44:35.048Z,99845.91
2018-06-18T03:47:16.350Z,99848.11
2018-06-18T03:49:48.282Z,99853.73
2018-06-18T03:52:21.629Z,99852.88
2018-06-18T03:54:54.878Z,99858.45
2018-06-18T03:57:27.608Z,99850.75
2018-06-18T03:59:59.621Z,99845.22
2018-06-18T04:02:48.001Z,99852.53
2018-06-18T04:05:25.616Z,99815.36
2018-06-18T04:08:00.616Z,99865.83
2018-06-18T04:10:39.059Z,99867.95
2018-06-18T04:13:11.237Z,99876.36
2018-06-18T04:15:44.928Z,99874.30
2018-06-18T04:18:16.450Z,99872.73
2018-06-18T04:20:51.503Z,99869.52
2018-06-18T04:23:23.375Z,99874.65
2018-06-18T04:25:54.969Z,99876.61
2018-06-18T04:28:27.624Z,99880.08
2018-06-18T04:30:59.454Z,99881.23
2018-06-18T04:33:32.032Z,99872.06
2018-06-18T04:36:04.327Z,99871.49
2018-06-18T04:38:36.318Z,99870.69
2018-06-18T04:41:08.367Z,99882.71
2018-06-18T04:43:45.084Z,99873.20
2018-06-18T04:46:22.568Z,99870.86
2018-06-18T04:48:58.700Z,99868.61
2018-06-18T04:51:30.702Z,99874.32
2018-06-18T04:54:05.423Z,99874.41
2018-06-18T04:56:37.271Z,99870.66
2018-06-18T04:59:09.198Z,99867.45
2018-06-18T05:01:40.495Z,99875.70
2018-06-18T05:04:13.647Z,99874.80
2018-06-18T05:06:45.324Z,99872.03
2018-06-18T05:09:24.677Z,99874.64
2018-06-18T05:11:57.521Z,99871.25
2018-06-18T05:14:28.888Z,99684.53
2018-06-18T05:17:01.823Z,99872.11
2018-06-18T05:19:33.867Z,99871.67
2018-06-18T05:22:05.603Z,99871.42
2018-06-18T05:24:37.944Z,99869.30
2018-06-18T05:27:12.631Z,99867.96
2018-06-18T05:29:44.792Z,99869.29
2018-06-18T05:32:16.838Z,99871.72
2018-06-18T05:34:48.681Z,99878.64
2018-06-18T05:37:43.068Z,99874.03
2018-06-18T05:40:14.962Z,99868.41
2018-06-18T05:42:47.257Z,99867.80
2018-06-18T05:45:18.942Z,99866.98
2018-06-18T05:47:50.641Z,99866.20
2018-06-18T05:50:22.671Z,99861.61
2018-06-18T05:52:53.941Z,99857.13
2018-06-18T05:55:26.055Z,99859.70
2018-06-18T05:57:57.541Z,99863.77
2018-06-18T06:00:29.840Z,99864.86
2018-06-18T06:03:01.991Z,99864.81
2018-06-18T06:05:33.669Z,99878.41
2018-06-18T06:08:06.751Z,99874.71
2018-06-18T06:10:38.935Z,99878.42
2018-06-18T06:19:39.903Z,99878.37
2018-06-18T06:22:11.178Z,99882.17
2018-06-18T06:24:44.344Z,99885.42
2018-06-18T06:27:16.300Z,99880.89
2018-06-18T06:29:48.182Z,99889.38
2018-06-18T06:32:19.884Z,99890.16
2018-06-18T06:35:06.434Z,99894.73
2018-06-18T06:37:38.566Z,99889.09
2018-06-18T06:40:10.940Z,99895.20
2018-06-18T06:42:42.832Z,99896.73
2018-06-18T06:45:15.861Z,99897.02
2018-06-18T06:47:48.051Z,99904.25
2018-06-18T06:50:22.205Z,99912.19
2018-06-18T06:52:55.478Z,99909.05
2018-06-18T06:55:27.894Z,99909.56
2018-06-18T06:57:59.427Z,99910.36
2018-06-18T07:00:31.560Z,99918.55
2018-06-18T07:03:03.572Z,99918.47
2018-06-18T07:05:35.879Z,99921.75
2018-06-18T07:08:07.630Z,99926.55
2018-06-18T07:10:40.633Z,99913.81
2018-06-18T07:13:12.810Z,99914.56
2018-06-18T07:15:43.999Z,99899.72
2018-06-18T07:18:15.950Z,99901.47
2018-06-18T07:20:47.577Z,99909.13
2018-06-18T07:23:19.004Z,99909.52
2018-06-18T07:25:52.250Z,99916.97
2018-06-18T07:28:23.950Z,99922.13
2018-06-18T07:30:56.214Z,99921.19
2018-06-18T07:33:28.884Z,99922.88
2018-06-18T07:36:02.030Z,99917.33
2018-06-18T07:38:34.108Z,99911.67
2018-06-18T07:41:06.833Z,99919.52
2018-06-18T07:43:38.947Z,99913.18
2018-06-18T07:46:10.467Z,99917.86
2018-06-18T07:48:41.718Z,99916.75
2018-06-18T07:51:13.157Z,99922.23
2018-06-18T07:53:44.361Z,99918.75
2018-06-18T07:56:16.198Z,99897.28
2018-06-18T07:58:48.196Z,99924.53
2018-06-18T08:01:20.503Z,99926.02
2018-06-18T08:03:51.994Z,99929.19
2018-06-18T08:06:24.002Z,99921.16
2018-06-18T08:08:56.906Z,99926.86
2018-06-18T08:11:28.512Z,99922.28
2018-06-18T08:14:00.343Z,99922.45
2018-06-18T08:16:32.661Z,99925.20
2018-06-18T08:19:04.179Z,99927.98
2018-06-18T08:21:36.387Z,99934.57
2018-06-18T08:24:08.507Z,99931.58
2018-06-18T08:26:40.817Z,99932.68
2018-06-18T08:29:12.139Z,99930.86
2018-06-18T08:31:44.096Z,99926.48
2018-06-18T08:34:15.452Z,99938.45
2018-06-18T08:36:47.276Z,99942.56
2018-06-18T08:39:20.605Z,99939.23
2018-06-18T08:41:51.923Z,99935.70
2018-06-18T08:44:23.876Z,99931.50
2018-06-18T08:46:55.475Z,99938.64
2018-06-18T08:49:26.871Z,99935.79
2018-06-18T08:52:03.135Z,99932.77
2018-06-18T08:54:40.143Z,99936.55
2018-06-18T08:57:16.546Z,99933.61
2018-06-18T08:59:52.613Z,99935.13
2018-06-18T09:02:33.364Z,99762.78
2018-06-18T09:05:14.759Z,99935.39
2018-06-18T09:07:51.848Z,99939.91
2018-06-18T09:10:23.600Z,99935.12
2018-06-18T09:12:56.660Z,99927.91
2018-06-18T09:15:28.408Z,99930.05
2018-06-18T09:17:59.763Z,99934.55
2018-06-18T09:20:32.721Z,99644.53
2018-06-18T09:23:04.268Z,99922.84
2018-06-18T09:25:35.818Z,99921.80
2018-06-18T09:28:07.827Z,99917.47
2018-06-18T09:30:39.026Z,99922.48
2018-06-18T09:33:10.240Z,99916.48
2018-06-18T09:35:42.238Z,99920.77
2018-06-18T09:38:14.447Z,99761.38
2018-06-18T09:40:46.573Z,99934.13
2018-06-18T09:43:18.198Z,99923.22
2018-06-18T09:45:49.615Z,99918.95
2018-06-18T09:48:21.394Z,99919.80
2018-06-18T09:50:57.159Z,99931.45
2018-06-18T09:53:33.532Z,99920.06
2018-06-18T09:56:09.449Z,99915.33
2018-06-18T09:58:45.411Z,99917.55
2018-06-18T10:01:34.178Z,99916.75
2018-06-18T10:04:06.950Z,99912.32
2018-06-18T10:06:39.636Z,99911.99
2018-06-18T10:09:12.587Z,99911.30
2018-06-18T10:11:44.911Z,99913.03
2018-06-18T10:14:16.659Z,99904.34
2018-06-18T10:16:49.566Z,99907.80
2018-06-18T10:19:21.722Z,99899.21
2018-06-18T10:21:53.705Z,99902.16
2018-06-18T10:24:26.004Z,99895.98
2018-06-18T10:26:57.947Z,99897.40
2018-06-18T10:29:29.899Z,99907.64
2018-06-18T10:32:01.282Z,99903.50
2018-06-18T10:34:37.593Z,99902.59
2018-06-18T10:37:13.823Z,99903.97
2018-06-18T10:39:49.667Z,99898.19
2018-06-18T10:42:26.008Z,99887.37
2018-06-18T10:44:58.293Z,99900.17
2018-06-18T10:47:30.698Z,99892.67
2018-06-18T10:50:02.427Z,99881.75
2018-06-18T10:52:33.708Z,99890.94
2018-06-18T10:55:06.169Z,99899.33
2018-06-18T10:57:38.132Z,99886.88
2018-06-18T11:00:11.762Z,99886.08
2018-06-18T11:02:43.287Z,99878.45
2018-06-18T11:05:16.076Z,99868.52
2018-06-18T11:07:47.272Z,99891.20
2018-06-18T11:10:20.422Z,99881.71
2018-06-18T11:12:51.751Z,99888.72
2018-06-18T11:15:23.523Z,99887.08
2018-06-18T11:17:59.379Z,99885.09
2018-06-18T11:20:35.405Z,99887.61
2018-06-18T11:23:11.968Z,99899.16
2018-06-18T11:25:48.433Z,99895.61
2018-06-18T11:28:20.123Z,99891.80
2018-06-18T11:30:51.524Z,99897.05
2018-06-18T11:33:22.868Z,99887.34
2018-06-18T11:35:54.514Z,99882.56
2018-06-18T11:38:25.802Z,99880.29
2018-06-18T11:40:57.384Z,99887.06
2018-06-18T11:43:28.881Z,99872.52
2018-06-18T11:46:00.200Z,99877.80
2018-06-18T11:48:33.787Z,99878.97
2018-06-18T11:51:05.242Z,99873.14
2018-06-18T11:53:37.401Z,99872.58
2018-06-18T11:56:08.841Z,99873.13
2018-06-18T11:58:45.435Z,99872.00
2018-06-18T12:01:21.637Z,99872.84
2018-06-18T12:03:57.283Z,99871.78
2018-06-18T12:06:35.323Z,99872.28
2018-06-18T12:09:14.196Z,99877.52
2018-06-18T12:11:47.402Z,99876.42
2018-06-18T12:14:52.189Z,99877.06
2018-06-18T12:17:24.748Z,99871.64
2018-06-18T12:20:27.903Z,99873.71
2018-06-18T12:23:29.426Z,99871.84
2018-06-18T12:26:01.617Z,99867.72
2018-06-18T12:28:35.152Z,99868.80
2018-06-18T12:31:07.574Z,99871.89
2018-06-18T12:33:40.021Z,99872.33
2018-06-18T12:36:13.024Z,99861.25
2018-06-18T12:38:47.664Z,99868.11
2018-06-18T12:41:24.561Z,99876.28
2018-06-18T12:44:00.458Z,99875.95
2018-06-18T12:46:36.979Z,99880.52
2018-06-18T12:49:14.220Z,99876.55
2018-06-18T12:51:50.781Z,99868.42
2018-06-18T12:54:27.820Z,99873.08
2018-06-18T12:57:04.556Z,99875.22
2018-06-18T12:59:40.464Z,99870.76
2018-06-18T13:02:15.321Z,99877.46
2018-06-18T13:04:53.038Z,99879.97
2018-06-18T13:07:24.956Z,99880.81
2018-06-18T13:09:57.921Z,99882.62
2018-06-18T13:12:29.827Z,99886.61
2018-06-18T13:15:01.069Z,99880.45
2018-06-18T13:17:34.842Z,99877.51
2018-06-18T13:20:06.580Z,99871.66
2018-06-18T13:22:39.079Z,99728.59
2018-06-18T13:25:10.518Z,99885.16
2018-06-18T13:27:46.507Z,99878.52
2018-06-18T13:30:18.673Z,99880.41
2018-06-18T13:32:54.501Z,99881.81
2018-06-18T13:35:29.678Z,99880.10
2018-06-18T13:38:05.384Z,99874.27
2018-06-18T13:40:45.262Z,99876.41
2018-06-18T13:43:21.923Z,99880.91
2018-06-18T13:47:59.433Z,99876.63
2018-06-18T13:50:31.058Z,99870.71
2018-06-18T13:53:02.974Z,99882.31
2018-06-18T13:55:34.845Z,99878.60
2018-06-18T13:58:08.540Z,99881.28
2018-06-18T14:00:40.410Z,99879.64
2018-06-18T14:03:12.314Z,99878.62
2018-06-18T14:05:44.095Z,99870.89
2018-06-18T14:08:15.684Z,99871.94
2018-06-18T14:10:47.902Z,99879.45
2018-06-18T14:13:19.325Z,99876.28
2018-06-18T14:15:50.654Z,99865.52
2018-06-18T14:18:23.267Z,99869.04
2018-06-18T14:20:55.001Z,99870.67
2018-06-18T14:23:26.665Z,99878.88
2018-06-18T14:25:58.533Z,99878.28
2018-06-18T14:28:32.229Z,99872.58
2018-06-18T14:32:11.923Z,99868.42
2018-06-18T14:34:56.485Z,99861.03
2018-06-18T14:37:33.174Z,99864.95
2018-06-18T14:40:21.156Z,99866.56
2018-06-18T14:42:53.443Z,99867.64
2018-06-18T14:45:24.890Z,99868.30
2018-06-18T14:47:57.626Z,99881.59
2018-06-18T14:50:30.309Z,99864.27
2018-06-18T14:53:02.262Z,99867.28
2018-06-18T14:55:34.209Z,99869.94
2018-06-18T14:58:06.641Z,99868.05
2018-06-18T15:00:40.797Z,99860.02
2018-06-18T15:03:15.593Z,99858.20
2018-06-18T15:05:48.880Z,99857.80
2018-06-18T15:08:24.279Z,99861.58
2018-06-18T15:11:01.351Z,99853.45
2018-06-18T15:13:35.831Z,99844.84
2018-06-18T15:16:18.017Z,99826.75
2018-06-18T15:18:50.362Z,99841.73
2018-06-18T15:21:22.925Z,99833.50
2018-06-18T15:23:55.405Z,99849.10
2018-06-18T15:26:27.840Z,99840.15
2018-06-18T15:28:59.802Z,99845.49
2018-06-18T15:31:32.072Z,99848.30
2018-06-18T15:34:04.096Z,99837.66
2018-06-18T15:36:35.487Z,99837.56
2018-06-18T15:39:11.209Z,99698.53
2018-06-18T15:41:48.702Z,99834.32
2018-06-18T15:44:21.902Z,99829.08
2018-06-18T15:46:56.522Z,99842.81
2018-06-18T15:49:29.557Z,99830.47
2018-06-18T15:52:02.429Z,99839.59
2018-06-18T15:54:35.230Z,99843.96
2018-06-18T15:57:08.404Z,99831.01
2018-06-18T15:59:41.651Z,99831.78
2018-06-18T16:02:15.400Z,99829.20
2018-06-18T16:04:49.112Z,99830.20
2018-06-18T16:07:26.505Z,99826.45
2018-06-18T16:09:59.731Z,99821.83
2018-06-18T16:12:32.560Z,99823.08
2018-06-18T16:15:05.015Z,99819.29
2018-06-18T16:17:36.644Z,99817.91
2018-06-18T16:20:11.034Z,99811.88
2018-06-18T16:22:44.947Z,99820.52
2018-06-18T16:25:17.483Z,99813.97
2018-06-18T16:27:49.352Z,99816.40
2018-06-18T16:30:22.492Z,99819.48
2018-06-18T16:32:55.340Z,99834.05
2018-06-18T16:35:27.422Z,99818.43
2018-06-18T16:37:59.058Z,99830.73
2018-06-18T16:40:31.897Z,99821.90
2018-06-18T16:43:05.182Z,99807.09
2018-06-18T16:45:38.785Z,99820.41
2018-06-18T16:48:13.051Z,99819.28
2018-06-18T16:50:45.615Z,99826.19
2018-06-18T16:53:18.151Z,99812.25
2018-06-18T16:55:50.779Z,99811.59
2018-06-18T16:58:22.854Z,99807.73
2018-06-18T17:00:55.560Z,99803.31
2018-06-18T17:03:27.294Z,99823.84
2018-06-18T17:05:59.661Z,99805.45
2018-06-18T17:08:31.292Z,99808.55
2018-06-18T17:11:02.824Z,99795.47
2018-06-18T17:13:34.608Z,99794.84
2018-06-18T17:16:06.418Z,99799.88
2018-06-18T17:18:38.471Z,99811.88
2018-06-18T17:21:09.851Z,99794.70
2018-06-18T17:23:41.531Z,99797.49
2018-06-18T17:26:13.693Z,99800.15
2018-06-18T17:28:44.935Z,99796.22
2018-06-18T17:31:16.485Z,99793.66
2018-06-18T17:33:48.211Z,99790.25
2018-06-18T17:36:19.759Z,99790.09
2018-06-18T17:38:51.566Z,99785.95
2018-06-18T17:41:23.222Z,99783.54
2018-06-18T17:43:54.559Z,99794.98
2018-06-18T17:46:26.194Z,99796.24
2018-06-18T17:48:57.487Z,99788.99
2018-06-18T17:51:29.197Z,99799.94
2018-06-18T17:54:00.835Z,99804.44
2018-06-18T17:56:32.586Z,99801.56
2018-06-18T17:59:08.672Z,99801.14
2018-06-18T18:01:40.082Z,99812.08
2018-06-18T18:04:11.973Z,99807.08
2018-06-18T18:06:43.786Z,99807.80
2018-06-18T18:09:15.311Z,99551.52
2018-06-18T18:11:47.182Z,99819.45
2018-06-18T18:14:18.899Z,99807.27
2018-06-18T18:16:50.311Z,99819.10
2018-06-18T18:19:21.711Z,99808.55
2018-06-18T18:21:53.821Z,99822.66
2018-06-18T18:24:25.663Z,99822.83
2018-06-18T18:26:58.410Z,99819.48
2018-06-18T18:29:30.100Z,99820.43
2018-06-18T18:32:01.663Z,99820.00
2018-06-18T18:34:33.516Z,99817.69
2018-06-18T18:37:06.622Z,99823.70
2018-06-18T18:39:38.515Z,99819.52
2018-06-18T18:42:10.798Z,99821.22
2018-06-18T18:44:42.751Z,99825.82
2018-06-18T18:47:15.784Z,99819.99
2018-06-18T18:49:48.691Z,99827.78
2018-06-18T18:52:20.687Z,99833.17
2018-06-18T18:56:03.395Z,99826.58
2018-06-18T18:59:41.349Z,99829.25
2018-06-18T19:02:15.263Z,99829.06
2018-06-18T19:04:58.415Z,99834.97
2018-06-18T19:07:47.529Z,99838.74
2018-06-18T19:10:26.328Z,99836.11
2018-06-18T19:13:04.088Z,99840.97
2018-06-18T19:15:36.480Z,99839.92
2018-06-18T19:18:11.501Z,99834.34
2018-06-18T19:20:55.672Z,99843.44
2018-06-18T19:23:28.412Z,99850.69
2018-06-18T19:26:00.638Z,99850.14
2018-06-18T19:28:37.067Z,99852.83
2018-06-18T19:31:20.449Z,99849.91
2018-06-18T19:34:01.420Z,99859.00
2018-06-18T19:36:34.370Z,99860.88
2018-06-18T19:39:08.253Z,99861.13
2018-06-18T19:41:40.207Z,99879.80
2018-06-18T19:44:15.063Z,99868.62
2018-06-18T19:47:03.359Z,99868.62
2018-06-18T19:49:35.166Z,99863.03
2018-06-18T19:52:07.010Z,99870.24
2018-06-18T19:54:46.909Z,99869.95
2018-06-18T19:57:19.201Z,99892.59
2018-06-18T19:59:51.477Z,99876.09
2018-06-18T20:02:23.931Z,99879.27
2018-06-18T20:04:58.422Z,99878.45
2018-06-18T20:07:34.415Z,99905.08
2018-06-18T20:10:09.415Z,99881.91
2018-06-18T20:12:48.726Z,99909.63
2018-06-18T20:15:24.137Z,99897.36
2018-06-18T20:17:58.014Z,99892.86
2018-06-18T20:20:31.182Z,99890.19
2018-06-18T20:23:02.949Z,99893.90
2018-06-18T20:25:43.707Z,99890.70
2018-06-18T20:28:16.557Z,99721.44
2018-06-18T20:30:48.262Z,99913.58
2018-06-18T20:33:23.619Z,99903.73
2018-06-18T20:36:03.708Z,99907.19
2018-06-18T20:38:38.869Z,99832.83
2018-06-18T20:41:10.973Z,99922.63
2018-06-18T20:44:06.320Z,99907.70
2018-06-18T20:46:40.696Z,99932.20
2018-06-18T20:49:14.495Z,99907.98
2018-06-18T20:51:46.672Z,99918.08
2018-06-18T20:54:23.570Z,99907.70
2018-06-18T20:56:55.364Z,99910.88
2018-06-18T20:59:32.223Z,99926.03
2018-06-18T21:02:03.987Z,99908.72
2018-06-18T21:04:36.166Z,99910.59
2018-06-18T21:07:07.691Z,99913.74
2018-06-18T21:09:39.625Z,99911.06
2018-06-18T21:12:11.547Z,99912.89
2018-06-18T21:14:43.617Z,99917.92
2018-06-18T21:17:16.653Z,99908.84
2018-06-18T21:19:47.882Z,99719.41
2018-06-18T21:22:20.747Z,99914.06
2018-06-18T21:24:54.119Z,99917.22
2018-06-18T21:27:27.938Z,99914.30
2018-06-18T21:30:00.130Z,99913.77
2018-06-18T21:32:31.935Z,99922.52
2018-06-18T21:35:04.077Z,99923.30
2018-06-18T21:37:35.684Z,99925.43
2018-06-18T21:40:08.018Z,99923.85
2018-06-18T21:42:40.315Z,99939.53
2018-06-18T21:45:21.029Z,99932.63
2018-06-18T21:47:52.857Z,99927.34
2018-06-18T21:50:24.835Z,99920.94
2018-06-18T21:52:56.694Z,99921.47
2018-06-18T21:55:28.150Z,99919.86
2018-06-18T21:58:01.584Z,99776.75
2018-06-18T22:00:38.853Z,99925.66
2018-06-18T22:03:10.895Z,99925.63
2018-06-18T22:05:42.741Z,99921.86
2018-06-18T22:08:16.768Z,99923.16
2018-06-18T22:10:48.598Z,99919.39
2018-06-18T22:13:20.092Z,99951.77
2018-06-18T22:15:51.504Z,99928.94
2018-06-18T22:18:23.237Z,99918.80
2018-06-18T22:20:54.552Z,99920.65
2018-06-18T22:23:25.891Z,99916.59
2018-06-18T22:25:57.512Z,99932.19
2018-06-18T22:28:34.330Z,99785.33
2018-06-18T22:31:06.587Z,99920.61
2018-06-18T22:33:38.440Z,99923.47
2018-06-18T22:36:10.240Z,99934.30
2018-06-18T22:38:41.496Z,99914.83
2018-06-18T22:41:13.110Z,99912.41
2018-06-18T22:43:45.060Z,99912.84
2018-06-18T22:46:16.520Z,99909.05
2018-06-18T22:48:47.840Z,99908.73
2018-06-18T22:51:20.283Z,99903.13
2018-06-18T22:53:51.725Z,99909.42
2018-06-18T22:56:23.458Z,99908.82
2018-06-18T22:58:54.839Z,99920.75
2018-06-18T23:01:26.474Z,99904.55
2018-06-18T23:03:58.651Z,99911.13
2018-06-18T23:06:30.344Z,99909.70
2018-06-18T23:09:04.937Z,99904.83
2018-06-18T23:11:36.691Z,99907.91
2018-06-18T23:14:12.760Z,99730.80
2018-06-18T23:16:44.898Z,99910.03
2018-06-18T23:19:16.317Z,99921.91
2018-06-18T23:21:47.648Z,99907.03
2018-06-18T23:24:19.200Z,99906.69
2018-06-18T23:26:50.572Z,99902.66
2018-06-18T23:29:22.856Z,99902.66
2018-06-18T23:31:55.021Z,99901.34
2018-06-18T23:34:26.499Z,99904.52
2018-06-18T23:36:58.861Z,99904.73
2018-06-18T23:39:30.936Z,99903.36
2018-06-18T23:42:02.946Z,99903.91
2018-06-18T23:44:34.622Z,99908.87
2018-06-18T23:47:06.640Z,99910.66
2018-06-18T23:49:38.338Z,99906.39
2018-06-18T23:52:09.822Z,99914.29
2018-06-18T23:54:42.166Z,99916.12
2018-06-18T23:57:14.057Z,99922.98
2018-06-18T23:59:45.788Z,99931.21
